createdAt,value
2017-05-12T00:00:04.987Z,17.68
2017-05-12T00:01:17.907Z,17.58
2017-05-12T00:02:30.823Z,17.57
2017-05-12T00:03:43.256Z,17.7
2017-05-12T00:04:56.182Z,17.62
2017-05-12T00:06:08.610Z,17.55
2017-05-12T00:07:20.062Z,17.66
2017-05-12T00:08:32.488Z,17.58
2017-05-12T00:09:45.612Z,17.7
2017-05-12T00:10:58.531Z,17.65
2017-05-12T00:12:11.446Z,17.57
2017-05-12T00:13:24.369Z,17.68
2017-05-12T00:14:37.288Z,17.73
2017-05-12T00:15:50.409Z,17.68
2017-05-12T00:17:02.860Z,17.7
2017-05-12T00:18:15.290Z,17.68
2017-05-12T00:19:28.210Z,17.66
2017-05-12T00:20:41.435Z,17.57
2017-05-12T00:21:54.355Z,17.55
2017-05-12T00:23:07.276Z,17.58
2017-05-12T00:24:19.710Z,17.65
2017-05-12T00:25:32.629Z,17.66
2017-05-12T00:26:45.881Z,17.6
2017-05-12T00:27:58.876Z,17.62
2017-05-12T00:29:11.380Z,17.6
2017-05-12T00:30:24.382Z,17.57
2017-05-12T00:31:37.601Z,17.62
2017-05-12T00:32:50.105Z,17.6
2017-05-12T00:34:03.120Z,17.55
2017-05-12T00:35:16.116Z,17.47
2017-05-12T00:36:28.617Z,17.54
2017-05-12T00:37:41.823Z,17.58
2017-05-12T00:38:54.327Z,17.55
2017-05-12T00:40:07.326Z,17.53
2017-05-12T00:41:20.330Z,17.54
2017-05-12T00:42:33.529Z,17.6
2017-05-12T00:43:46.524Z,17.54
2017-05-12T00:44:59.519Z,17.49
2017-05-12T00:46:12.543Z,17.53
2017-05-12T00:47:25.041Z,17.49
2017-05-12T00:48:38.035Z,17.47
2017-05-12T00:49:51.025Z,17.46
2017-05-12T00:51:04.007Z,17.47
2017-05-12T00:52:16.989Z,17.47
2017-05-12T00:53:30.174Z,17.46
2017-05-12T00:54:43.158Z,17.54
2017-05-12T00:55:56.146Z,17.53
2017-05-12T00:57:08.631Z,17.55
2017-05-12T00:58:20.129Z,17.53
2017-05-12T00:59:33.113Z,17.49
2017-05-12T01:00:45.600Z,17.58
2017-05-12T01:01:58.544Z,17.47
2017-05-12T01:03:11.443Z,17.49
2017-05-12T01:04:24.351Z,17.51
2017-05-12T01:05:37.301Z,17.46
2017-05-12T01:06:50.201Z,17.4
2017-05-12T01:08:02.612Z,17.39
2017-05-12T01:09:15.026Z,17.32
2017-05-12T01:10:27.966Z,17.4
2017-05-12T01:11:40.862Z,17.3
2017-05-12T01:12:53.275Z,17.32
2017-05-12T01:14:06.177Z,17.38
2017-05-12T01:15:19.382Z,17.32
2017-05-12T01:16:31.795Z,17.39
2017-05-12T01:17:44.695Z,17.33
2017-05-12T01:18:57.109Z,17.38
2017-05-12T01:20:09.029Z,17.33
2017-05-12T01:21:21.935Z,17.28
2017-05-12T01:22:34.830Z,17.36
2017-05-12T01:23:47.726Z,17.3
2017-05-12T01:25:00.625Z,17.32
2017-05-12T01:26:13.524Z,17.32
2017-05-12T01:27:26.430Z,17.36
2017-05-12T01:28:38.838Z,17.28
2017-05-12T01:29:51.250Z,17.43
2017-05-12T01:31:04.153Z,17.3
2017-05-12T01:32:17.266Z,17.33
2017-05-12T01:33:29.681Z,17.33
2017-05-12T01:34:42.585Z,17.3
2017-05-12T01:35:55.490Z,17.32
2017-05-12T01:37:08.199Z,17.21
2017-05-12T01:38:21.102Z,17.18
2017-05-12T01:39:34.003Z,17.21
2017-05-12T01:40:46.414Z,17.15
2017-05-12T01:41:59.314Z,17.22
2017-05-12T01:43:25.973Z,17.22
2017-05-12T01:44:38.398Z,17.27
2017-05-12T01:45:51.302Z,17.3
2017-05-12T01:47:04.204Z,17.36
2017-05-12T01:48:17.307Z,17.28
2017-05-12T01:49:29.726Z,17.21
2017-05-12T01:50:42.629Z,17.25
2017-05-12T01:51:55.043Z,17.2
2017-05-12T01:53:07.949Z,17.27
2017-05-12T01:54:20.858Z,17.21
2017-05-12T01:55:33.762Z,17.15
2017-05-12T01:56:46.663Z,17.22
2017-05-12T01:57:59.563Z,17.3
2017-05-12T01:59:12.769Z,17.42
2017-05-12T02:00:25.667Z,17.3
2017-05-12T02:01:38.569Z,17.36
2017-05-12T02:02:51.472Z,17.3
2017-05-12T02:04:04.374Z,17.33
2017-05-12T02:05:16.987Z,17.39
2017-05-12T02:06:29.887Z,17.27
2017-05-12T02:07:42.790Z,17.3
2017-05-12T02:08:55.700Z,17.25
2017-05-12T02:10:08.607Z,17.21
2017-05-12T02:11:21.022Z,17.24
2017-05-12T02:12:33.921Z,17.33
2017-05-12T02:13:46.830Z,17.18
2017-05-12T02:14:59.735Z,17.18
2017-05-12T02:16:12.633Z,17.28
2017-05-12T02:17:25.536Z,17.27
2017-05-12T02:18:37.953Z,17.22
2017-05-12T02:19:50.369Z,17.25
2017-05-12T02:21:02.980Z,17.21
2017-05-12T02:22:15.885Z,17.18
2017-05-12T02:23:28.789Z,17.2
2017-05-12T02:24:41.692Z,17.18
2017-05-12T02:25:54.597Z,17.3
2017-05-12T02:27:07.499Z,17.22
2017-05-12T02:28:20.398Z,17.24
2017-05-12T02:29:33.301Z,17.15
2017-05-12T02:30:46.199Z,17.2
2017-05-12T02:31:59.109Z,17.14
2017-05-12T02:33:11.029Z,17.21
2017-05-12T02:34:23.927Z,17.14
2017-05-12T02:35:36.825Z,17.17
2017-05-12T02:36:49.730Z,17.12
2017-05-12T02:38:02.932Z,17.1
2017-05-12T02:39:15.343Z,17.12
2017-05-12T02:40:28.244Z,17.02
2017-05-12T02:41:41.142Z,16.98
2017-05-12T02:42:54.246Z,17
2017-05-12T02:44:07.151Z,16.99
2017-05-12T02:45:20.121Z,16.99
2017-05-12T02:46:32.162Z,16.98
2017-05-12T02:47:45.209Z,17
2017-05-12T02:48:58.452Z,16.96
2017-05-12T02:50:10.994Z,16.99
2017-05-12T02:51:24.045Z,16.92
2017-05-12T02:52:37.097Z,16.92
2017-05-12T02:53:50.143Z,16.96
2017-05-12T02:55:03.185Z,17.03
2017-05-12T02:56:15.223Z,16.99
2017-05-12T02:57:28.286Z,16.99
2017-05-12T02:58:41.336Z,17
2017-05-12T02:59:54.380Z,17.05
2017-05-12T03:01:07.422Z,17.14
2017-05-12T03:02:20.447Z,17.12
2017-05-12T03:03:31.894Z,17.06
2017-05-12T03:04:44.819Z,17.05
2017-05-12T03:05:57.786Z,17.07
2017-05-12T03:07:10.703Z,17.1
2017-05-12T03:08:23.138Z,17.18
2017-05-12T03:09:36.058Z,17.15
2017-05-12T03:10:48.486Z,17.05
2017-05-12T03:12:01.428Z,16.98
2017-05-12T03:13:13.858Z,17.09
2017-05-12T03:14:26.781Z,17.03
2017-05-12T03:15:39.410Z,17.03
2017-05-12T03:16:51.839Z,17
2017-05-12T03:18:04.768Z,17.05
2017-05-12T03:19:17.627Z,17.03
2017-05-12T03:20:30.409Z,16.96
2017-05-12T03:21:43.490Z,16.95
2017-05-12T03:22:56.273Z,16.99
2017-05-12T03:24:09.058Z,16.96
2017-05-12T03:25:21.839Z,17
2017-05-12T03:26:34.616Z,16.96
2017-05-12T03:27:46.914Z,16.92
2017-05-12T03:28:58.732Z,16.99
2017-05-12T03:30:11.509Z,16.88
2017-05-12T03:31:24.290Z,16.9
2017-05-12T03:32:37.374Z,16.84
2017-05-12T03:33:50.171Z,16.87
2017-05-12T03:35:02.953Z,16.81
2017-05-12T03:36:15.256Z,16.82
2017-05-12T03:37:28.242Z,16.78
2017-05-12T03:38:41.052Z,16.65
2017-05-12T03:39:53.839Z,16.7
2017-05-12T03:41:06.624Z,16.7
2017-05-12T03:42:19.402Z,16.65
2017-05-12T03:43:32.480Z,16.7
2017-05-12T03:44:45.266Z,16.73
2017-05-12T03:45:58.047Z,16.75
2017-05-12T03:47:10.345Z,16.8
2017-05-12T03:48:23.395Z,16.8
2017-05-12T03:49:35.804Z,16.81
2017-05-12T03:50:48.705Z,16.85
2017-05-12T03:52:01.109Z,16.8
2017-05-12T03:53:13.517Z,16.77
2017-05-12T03:54:26.411Z,16.78
2017-05-12T03:55:38.825Z,16.88
2017-05-12T03:56:51.230Z,16.88
2017-05-12T03:58:04.133Z,16.85
2017-05-12T03:59:16.055Z,16.85
2017-05-12T04:00:28.959Z,16.85
2017-05-12T04:01:41.860Z,16.82
2017-05-12T04:02:54.770Z,16.84
2017-05-12T04:04:07.666Z,16.8
2017-05-12T04:05:20.083Z,16.84
2017-05-12T04:06:32.985Z,16.8
2017-05-12T04:07:45.889Z,16.78
2017-05-12T04:08:58.792Z,16.8
2017-05-12T04:10:11.893Z,16.85
2017-05-12T04:11:24.797Z,16.77
2017-05-12T04:12:37.697Z,16.88
2017-05-12T04:13:50.596Z,16.9
2017-05-12T04:15:03.497Z,16.92
2017-05-12T04:16:16.398Z,17
2017-05-12T04:17:28.809Z,16.99
2017-05-12T04:18:40.730Z,17.02
2017-05-12T04:19:53.629Z,16.96
2017-05-12T04:21:06.830Z,16.95
2017-05-12T04:22:19.730Z,17.03
2017-05-12T04:23:32.628Z,17.05
2017-05-12T04:24:45.526Z,16.92
2017-05-12T04:25:58.422Z,16.84
2017-05-12T04:27:11.627Z,16.8
2017-05-12T04:28:24.523Z,16.8
2017-05-12T04:29:36.933Z,16.8
2017-05-12T04:30:49.842Z,16.81
2017-05-12T04:32:03.043Z,16.85
2017-05-12T04:33:15.952Z,16.85
2017-05-12T04:34:28.385Z,16.9
2017-05-12T04:35:41.306Z,16.87
2017-05-12T04:36:54.223Z,16.82
2017-05-12T04:38:06.656Z,16.8
2017-05-12T04:39:19.575Z,16.85
2017-05-12T04:40:32.000Z,16.78
2017-05-12T04:41:44.913Z,16.8
2017-05-12T04:42:58.028Z,16.8
2017-05-12T04:44:10.456Z,16.81
2017-05-12T04:45:22.393Z,16.77
2017-05-12T04:46:34.819Z,16.8
2017-05-12T04:47:47.738Z,16.77
2017-05-12T04:49:00.860Z,16.77
2017-05-12T04:50:13.778Z,16.67
2017-05-12T04:51:26.693Z,16.57
2017-05-12T04:52:39.610Z,16.75
2017-05-12T04:53:52.829Z,16.75
2017-05-12T04:55:05.745Z,16.65
2017-05-12T04:56:18.166Z,16.75
2017-05-12T04:57:31.083Z,16.63
2017-05-12T04:58:44.001Z,16.67
2017-05-12T04:59:57.122Z,16.72
2017-05-12T05:01:09.545Z,16.65
2017-05-12T05:02:22.464Z,16.75
2017-05-12T05:03:35.387Z,16.8
2017-05-12T05:04:47.818Z,16.72
2017-05-12T05:06:00.734Z,16.7
2017-05-12T05:07:13.158Z,16.63
2017-05-12T05:08:26.073Z,16.69
2017-05-12T05:09:38.497Z,16.69
2017-05-12T05:10:51.126Z,16.8
2017-05-12T05:12:04.044Z,16.8
2017-05-12T05:13:16.505Z,16.85
2017-05-12T05:14:28.934Z,16.85
2017-05-12T05:15:41.858Z,16.84
2017-05-12T05:16:54.283Z,16.84
2017-05-12T05:18:06.708Z,16.87
2017-05-12T05:19:19.132Z,16.91
2017-05-12T05:20:31.559Z,16.88
2017-05-12T05:21:44.477Z,16.9
2017-05-12T05:22:57.391Z,16.85
2017-05-12T05:24:10.308Z,16.95
2017-05-12T05:25:23.222Z,16.87
2017-05-12T05:26:36.138Z,16.9
2017-05-12T05:27:48.606Z,16.91
2017-05-12T05:29:01.524Z,16.87
2017-05-12T05:30:14.439Z,16.82
2017-05-12T05:31:26.371Z,16.85
2017-05-12T05:32:39.589Z,16.92
2017-05-12T05:33:52.504Z,17
2017-05-12T05:35:05.427Z,17.02
2017-05-12T05:36:18.355Z,17.02
2017-05-12T05:37:45.328Z,17
2017-05-12T05:38:57.757Z,17.06
2017-05-12T05:40:10.196Z,17.05
2017-05-12T05:41:22.620Z,17
2017-05-12T05:42:35.736Z,17.07
2017-05-12T05:43:48.167Z,17.06
2017-05-12T05:45:01.099Z,17.15
2017-05-12T05:46:14.022Z,17.17
2017-05-12T05:47:26.443Z,17.18
2017-05-12T05:48:39.556Z,17.12
2017-05-12T05:49:52.469Z,17.18
2017-05-12T05:51:05.386Z,17.17
2017-05-12T05:52:17.809Z,17.17
2017-05-12T05:53:30.938Z,17.32
2017-05-12T05:54:43.855Z,17.18
2017-05-12T05:55:56.816Z,17.21
2017-05-12T05:57:09.242Z,17.36
2017-05-12T05:58:21.665Z,17.33
2017-05-12T05:59:34.799Z,17.33
2017-05-12T06:00:47.711Z,17.33
2017-05-12T06:02:00.627Z,17.3
2017-05-12T06:03:13.051Z,17.25
2017-05-12T06:04:25.477Z,17.32
2017-05-12T06:05:38.394Z,17.22
2017-05-12T06:06:51.308Z,17.2
2017-05-12T06:08:04.221Z,17.14
2017-05-12T06:09:17.134Z,17.21
2017-05-12T06:10:29.762Z,17.2
2017-05-12T06:11:42.685Z,17.21
2017-05-12T06:12:55.665Z,17.25
2017-05-12T06:14:08.721Z,17.2
2017-05-12T06:15:21.485Z,17.14
2017-05-12T06:16:34.547Z,17.17
2017-05-12T06:17:47.105Z,17.15
2017-05-12T06:19:00.163Z,17.17
2017-05-12T06:20:13.265Z,17.22
2017-05-12T06:21:26.324Z,17.2
2017-05-12T06:22:39.385Z,17.22
2017-05-12T06:23:51.944Z,17.21
2017-05-12T06:25:05.005Z,17.17
2017-05-12T06:26:18.359Z,17.2
2017-05-12T06:27:30.917Z,17.22
2017-05-12T06:28:43.982Z,17.17
2017-05-12T06:29:57.036Z,17.17
2017-05-12T06:31:10.096Z,17.15
2017-05-12T06:32:22.857Z,17.17
2017-05-12T06:33:35.918Z,17.15
2017-05-12T06:34:48.975Z,17.17
2017-05-12T06:36:02.033Z,17.15
2017-05-12T06:37:14.888Z,17.1
2017-05-12T06:38:26.444Z,17.12
2017-05-12T06:39:39.500Z,17.1
2017-05-12T06:40:52.564Z,17.17
2017-05-12T06:42:05.618Z,17.17
2017-05-12T06:43:18.176Z,17.15
2017-05-12T06:44:30.738Z,17.15
2017-05-12T06:45:43.792Z,17.06
2017-05-12T06:46:56.854Z,16.95
2017-05-12T06:48:09.345Z,17.02
2017-05-12T06:49:21.783Z,17.03
2017-05-12T06:50:34.701Z,17.05
2017-05-12T06:51:47.619Z,17.02
2017-05-12T06:53:00.540Z,16.98
2017-05-12T06:54:12.679Z,16.98
2017-05-12T06:55:25.103Z,17.05
2017-05-12T06:56:38.022Z,17.09
2017-05-12T06:57:50.941Z,16.95
2017-05-12T06:59:03.853Z,16.91
2017-05-12T07:00:16.769Z,16.96
2017-05-12T07:01:29.195Z,16.9
2017-05-12T07:02:42.109Z,16.91
2017-05-12T07:03:55.024Z,16.81
2017-05-12T07:05:07.449Z,16.82
2017-05-12T07:06:19.874Z,16.84
2017-05-12T07:07:32.793Z,16.82
2017-05-12T07:08:45.233Z,16.8
2017-05-12T07:09:58.354Z,16.8
2017-05-12T07:11:11.268Z,16.82
2017-05-12T07:12:23.201Z,16.84
2017-05-12T07:13:36.115Z,16.81
2017-05-12T07:14:49.044Z,16.88
2017-05-12T07:16:02.156Z,16.85
2017-05-12T07:17:15.071Z,16.77
2017-05-12T07:18:27.986Z,16.84
2017-05-12T07:19:40.407Z,16.77
2017-05-12T07:20:53.331Z,16.77
2017-05-12T07:22:06.310Z,16.7
2017-05-12T07:23:19.369Z,16.69
2017-05-12T07:24:31.929Z,16.66
2017-05-12T07:25:44.985Z,16.65
2017-05-12T07:26:57.840Z,16.66
2017-05-12T07:28:10.900Z,16.7
2017-05-12T07:29:23.961Z,16.66
2017-05-12T07:30:36.522Z,16.69
2017-05-12T07:31:49.293Z,16.63
2017-05-12T07:33:02.351Z,16.7
2017-05-12T07:34:15.391Z,16.65
2017-05-12T07:35:27.933Z,16.65
2017-05-12T07:36:40.968Z,16.6
2017-05-12T07:37:54.313Z,16.62
2017-05-12T07:39:07.354Z,16.7
2017-05-12T07:40:19.895Z,16.72
2017-05-12T07:41:32.436Z,16.72
2017-05-12T07:42:45.484Z,16.7
2017-05-12T07:43:58.522Z,16.66
2017-05-12T07:45:11.569Z,16.54
2017-05-12T07:46:24.607Z,16.57
2017-05-12T07:47:37.151Z,16.48
2017-05-12T07:48:50.496Z,16.5
2017-05-12T07:50:03.540Z,16.5
2017-05-12T07:51:16.077Z,16.51
2017-05-12T07:52:28.616Z,16.51
2017-05-12T07:53:41.964Z,16.55
2017-05-12T07:54:55.005Z,16.6
2017-05-12T07:56:08.049Z,16.54
2017-05-12T07:57:20.561Z,16.62
2017-05-12T07:58:33.047Z,16.62
2017-05-12T07:59:46.028Z,16.62
2017-05-12T08:00:58.512Z,16.6
2017-05-12T08:02:11.540Z,16.67
2017-05-12T08:03:24.531Z,16.62
2017-05-12T08:04:37.022Z,16.6
2017-05-12T08:05:50.001Z,16.5
2017-05-12T08:07:02.988Z,16.62
2017-05-12T08:08:15.972Z,16.57
2017-05-12T08:09:28.453Z,16.65
2017-05-12T08:10:41.433Z,16.65
2017-05-12T08:11:54.421Z,16.65
2017-05-12T08:13:07.405Z,16.54
2017-05-12T08:14:19.944Z,16.65
2017-05-12T08:15:33.120Z,16.6
2017-05-12T08:16:45.606Z,16.67
2017-05-12T08:17:58.527Z,16.6
2017-05-12T08:19:11.402Z,16.59
2017-05-12T08:20:23.786Z,16.6
2017-05-12T08:21:36.170Z,16.59
2017-05-12T08:22:49.039Z,16.55
2017-05-12T08:24:01.441Z,16.55
2017-05-12T08:25:13.830Z,16.57
2017-05-12T08:26:26.510Z,16.42
2017-05-12T08:27:39.374Z,16.42
2017-05-12T08:28:52.244Z,16.52
2017-05-12T08:30:04.634Z,16.52
2017-05-12T08:31:17.507Z,16.57
2017-05-12T08:32:30.185Z,16.52
2017-05-12T08:33:43.015Z,16.51
2017-05-12T08:34:55.804Z,16.5
2017-05-12T08:36:08.594Z,16.5
2017-05-12T08:37:21.582Z,16.45
2017-05-12T08:38:34.400Z,16.47
2017-05-12T08:39:46.706Z,16.55
2017-05-12T08:40:59.503Z,16.44
2017-05-12T08:42:12.285Z,16.57
2017-05-12T08:43:25.365Z,16.5
2017-05-12T08:44:38.151Z,16.59
2017-05-12T08:45:50.939Z,16.55
2017-05-12T08:47:03.241Z,16.55
2017-05-12T08:48:16.231Z,16.55
2017-05-12T08:49:28.532Z,16.54
2017-05-12T08:50:40.837Z,16.51
2017-05-12T08:51:53.630Z,16.52
2017-05-12T08:53:05.450Z,16.52
2017-05-12T08:54:17.952Z,16.5
2017-05-12T08:55:30.259Z,16.52
2017-05-12T08:56:43.037Z,16.55
2017-05-12T08:57:55.339Z,16.52
2017-05-12T08:59:08.429Z,16.51
2017-05-12T09:00:20.726Z,16.54
2017-05-12T09:01:33.523Z,16.54
2017-05-12T09:02:45.820Z,16.5
2017-05-12T09:03:58.630Z,16.62
2017-05-12T09:05:25.489Z,16.51
2017-05-12T09:06:38.281Z,16.54
2017-05-12T09:07:51.062Z,16.5
2017-05-12T09:09:03.358Z,16.54
2017-05-12T09:10:16.134Z,16.55
2017-05-12T09:11:28.439Z,16.5
2017-05-12T09:12:39.774Z,16.45
2017-05-12T09:13:52.557Z,16.48
2017-05-12T09:15:05.336Z,16.5
2017-05-12T09:16:18.112Z,16.5
2017-05-12T09:17:29.926Z,16.48
2017-05-12T09:18:42.703Z,16.54
2017-05-12T09:19:55.477Z,16.54
2017-05-12T09:21:08.082Z,16.51
2017-05-12T09:22:20.860Z,16.54
2017-05-12T09:23:33.637Z,16.48
2017-05-12T09:24:45.937Z,16.48
2017-05-12T09:25:58.714Z,16.42
2017-05-12T09:27:11.017Z,16.5
2017-05-12T09:28:23.796Z,16.5
2017-05-12T09:29:36.099Z,16.51
2017-05-12T09:30:48.878Z,16.47
2017-05-12T09:32:01.964Z,16.47
2017-05-12T09:33:14.262Z,16.47
2017-05-12T09:34:27.038Z,16.44
2017-05-12T09:35:39.337Z,16.51
2017-05-12T09:36:52.317Z,16.51
2017-05-12T09:38:05.102Z,16.52
2017-05-12T09:39:17.398Z,16.47
2017-05-12T09:40:30.177Z,16.52
2017-05-12T09:41:42.954Z,16.48
2017-05-12T09:42:55.767Z,16.5
2017-05-12T09:44:08.142Z,16.57
2017-05-12T09:45:21.001Z,16.54
2017-05-12T09:46:33.858Z,16.55
2017-05-12T09:47:46.792Z,16.54
2017-05-12T09:48:59.292Z,16.57
2017-05-12T09:50:11.796Z,16.4
2017-05-12T09:51:24.296Z,16.5
2017-05-12T09:52:36.798Z,16.52
2017-05-12T09:53:48.803Z,16.45
2017-05-12T09:55:01.309Z,16.52
2017-05-12T09:56:14.300Z,16.52
2017-05-12T09:57:27.301Z,16.48
2017-05-12T09:58:39.514Z,16.47
2017-05-12T09:59:52.511Z,16.44
2017-05-12T10:01:04.516Z,16.51
2017-05-12T10:02:17.015Z,16.52
2017-05-12T10:03:30.011Z,16.54
2017-05-12T10:04:43.308Z,16.5
2017-05-12T10:05:55.808Z,16.54
2017-05-12T10:07:08.806Z,16.52
2017-05-12T10:08:21.809Z,16.57
2017-05-12T10:09:34.806Z,16.52
2017-05-12T10:10:47.798Z,16.47
2017-05-12T10:12:00.300Z,16.52
2017-05-12T10:13:13.294Z,16.47
2017-05-12T10:14:25.794Z,16.59
2017-05-12T10:15:38.787Z,16.59
2017-05-12T10:16:51.289Z,16.55
2017-05-12T10:18:04.284Z,16.57
2017-05-12T10:19:17.287Z,16.62
2017-05-12T10:20:30.281Z,16.6
2017-05-12T10:21:43.279Z,16.55
2017-05-12T10:22:56.279Z,16.59
2017-05-12T10:24:09.276Z,16.67
2017-05-12T10:25:21.778Z,16.69
2017-05-12T10:26:34.124Z,16.72
2017-05-12T10:27:47.118Z,16.69
2017-05-12T10:28:59.626Z,16.8
2017-05-12T10:30:12.650Z,16.73
2017-05-12T10:31:25.644Z,16.73
2017-05-12T10:32:38.650Z,16.78
2017-05-12T10:33:51.139Z,16.8
2017-05-12T10:35:04.119Z,16.66
2017-05-12T10:36:17.103Z,16.62
2017-05-12T10:37:29.787Z,16.69
2017-05-12T10:38:42.273Z,16.73
2017-05-12T10:39:55.262Z,16.69
2017-05-12T10:41:08.248Z,16.72
2017-05-12T10:42:21.230Z,16.8
2017-05-12T10:43:33.715Z,16.8
2017-05-12T10:44:46.199Z,16.77
2017-05-12T10:45:59.178Z,16.8
2017-05-12T10:47:12.161Z,16.78
2017-05-12T10:48:25.442Z,16.8
2017-05-12T10:49:37.930Z,16.77
2017-05-12T10:50:50.417Z,16.62
2017-05-12T10:52:02.906Z,16.47
2017-05-12T10:53:15.893Z,16.55
2017-05-12T10:54:28.381Z,16.6
2017-05-12T10:55:41.366Z,16.63
2017-05-12T10:56:53.855Z,16.66
2017-05-12T10:58:06.831Z,16.69
2017-05-12T10:59:19.546Z,16.75
2017-05-12T11:00:31.541Z,16.82
2017-05-12T11:01:44.521Z,16.88
2017-05-12T11:02:57.009Z,16.85
2017-05-12T11:04:09.494Z,16.98
2017-05-12T11:05:22.476Z,17.02
2017-05-12T11:06:34.962Z,16.87
2017-05-12T11:07:47.942Z,16.81
2017-05-12T11:09:00.427Z,16.81
2017-05-12T11:10:13.109Z,16.67
2017-05-12T11:11:25.594Z,16.75
2017-05-12T11:12:38.589Z,16.73
2017-05-12T11:13:51.570Z,16.66
2017-05-12T11:15:04.753Z,16.77
2017-05-12T11:16:16.744Z,16.78
2017-05-12T11:17:29.735Z,16.69
2017-05-12T11:18:42.252Z,16.8
2017-05-12T11:19:54.797Z,16.96
2017-05-12T11:21:07.315Z,16.99
2017-05-12T11:22:20.317Z,16.96
2017-05-12T11:23:32.820Z,17.03
2017-05-12T11:24:45.816Z,17.07
2017-05-12T11:25:59.012Z,17.15
2017-05-12T11:27:11.969Z,17.17
2017-05-12T11:28:24.393Z,17.24
2017-05-12T11:29:37.319Z,17.28
2017-05-12T11:30:49.752Z,17.32
2017-05-12T11:32:02.865Z,17.46
2017-05-12T11:33:15.782Z,17.49
2017-05-12T11:34:28.700Z,17.53
2017-05-12T11:35:41.618Z,17.63
2017-05-12T11:37:08.088Z,17.76
2017-05-12T11:38:21.002Z,17.91
2017-05-12T11:39:33.919Z,18.01
2017-05-12T11:40:46.835Z,18.16
2017-05-12T11:41:59.566Z,18.19
2017-05-12T11:43:12.491Z,18.36
2017-05-12T11:44:24.967Z,18.38
2017-05-12T11:45:37.888Z,18.44
2017-05-12T11:46:50.810Z,18.49
2017-05-12T11:48:04.530Z,18.74
2017-05-12T11:49:17.447Z,18.83
2017-05-12T11:50:30.365Z,18.93
2017-05-12T11:51:43.281Z,19.09
2017-05-12T11:52:56.206Z,19.35
2017-05-12T11:54:09.123Z,19.52
2017-05-12T11:55:21.066Z,19.43
2017-05-12T11:56:33.986Z,19.5
2017-05-12T11:57:46.415Z,19.24
2017-05-12T11:58:59.333Z,19.28
2017-05-12T12:00:12.249Z,19.39
2017-05-12T12:01:24.724Z,19.61
2017-05-12T12:02:36.720Z,19.76
2017-05-12T12:03:49.425Z,19.85
2017-05-12T12:05:02.407Z,19.85
2017-05-12T12:06:15.435Z,19.76
2017-05-12T12:07:28.417Z,19.68
2017-05-12T12:08:41.403Z,19.68
2017-05-12T12:09:53.594Z,19.97
2017-05-12T12:11:06.585Z,19.95
2017-05-12T12:12:19.571Z,20.07
2017-05-12T12:13:32.554Z,20.17
2017-05-12T12:14:45.536Z,20.35
2017-05-12T12:15:58.516Z,20.42
2017-05-12T12:17:11.499Z,20.56
2017-05-12T12:18:23.989Z,20.51
2017-05-12T12:19:36.481Z,20.53
2017-05-12T12:20:49.319Z,20.6
2017-05-12T12:22:02.300Z,20.69
2017-05-12T12:23:14.788Z,20.83
2017-05-12T12:24:27.771Z,21
2017-05-12T12:25:40.752Z,21.11
2017-05-12T12:26:53.740Z,21.21
2017-05-12T12:28:05.734Z,21.27
2017-05-12T12:29:18.717Z,21.3
2017-05-12T12:30:31.700Z,21.31
2017-05-12T12:31:44.980Z,21.36
2017-05-12T12:32:57.474Z,21.38
2017-05-12T12:34:10.462Z,21.48
2017-05-12T12:35:23.446Z,21.67
2017-05-12T12:36:35.440Z,21.74
2017-05-12T12:37:47.928Z,21.81
2017-05-12T12:39:00.926Z,21.91
2017-05-12T12:40:14.109Z,21.83
2017-05-12T12:41:27.097Z,21.81
2017-05-12T12:42:40.081Z,21.67
2017-05-12T12:43:53.066Z,21.59
2017-05-12T12:45:06.054Z,21.67
2017-05-12T12:46:19.037Z,21.52
2017-05-12T12:47:31.525Z,21.53
2017-05-12T12:48:44.506Z,21.59
2017-05-12T12:49:57.493Z,21.49
2017-05-12T12:51:10.094Z,21.48
2017-05-12T12:52:23.082Z,21.49
2017-05-12T12:53:35.079Z,21.43
2017-05-12T12:54:48.069Z,21.56
2017-05-12T12:56:01.053Z,21.61
2017-05-12T12:57:13.542Z,21.73
2017-05-12T12:58:26.526Z,22.01
2017-05-12T12:59:39.509Z,21.9
2017-05-12T13:00:52.003Z,22.04
2017-05-12T13:02:04.989Z,22.11
2017-05-12T13:03:17.480Z,22.29
2017-05-12T13:04:30.470Z,22.41
2017-05-12T13:05:43.460Z,22.44
2017-05-12T13:06:56.445Z,22.49
2017-05-12T13:08:09.633Z,22.56
2017-05-12T13:09:22.130Z,22.66
2017-05-12T13:10:35.087Z,22.44
2017-05-12T13:11:47.996Z,22.44
2017-05-12T13:13:00.410Z,22.48
2017-05-12T13:14:12.821Z,22.49
2017-05-12T13:15:24.258Z,22.51
2017-05-12T13:16:36.674Z,22.26
2017-05-12T13:17:49.483Z,22.12
2017-05-12T13:19:02.383Z,22.15
2017-05-12T13:20:15.287Z,22.23
2017-05-12T13:21:28.191Z,22.24
2017-05-12T13:22:41.097Z,22.41
2017-05-12T13:23:54.213Z,22.26
2017-05-12T13:25:07.116Z,22.42
2017-05-12T13:26:19.046Z,22.38
2017-05-12T13:27:31.948Z,22.49
2017-05-12T13:28:44.853Z,22.56
2017-05-12T13:29:57.262Z,22.69
2017-05-12T13:31:09.687Z,22.64
2017-05-12T13:32:21.613Z,22.6
2017-05-12T13:33:34.518Z,22.6
2017-05-12T13:34:47.420Z,22.48
2017-05-12T13:36:00.320Z,22.52
2017-05-12T13:37:13.223Z,22.48
2017-05-12T13:38:25.636Z,22.45
2017-05-12T13:39:38.057Z,22.59
2017-05-12T13:40:50.183Z,22.63
2017-05-12T13:42:03.094Z,22.69
2017-05-12T13:43:15.508Z,22.7
2017-05-12T13:44:41.486Z,22.82
2017-05-12T13:45:54.401Z,22.89
2017-05-12T13:47:07.307Z,23.11
2017-05-12T13:48:19.727Z,23.09
2017-05-12T13:49:32.635Z,23.14
2017-05-12T13:50:45.071Z,23.15
2017-05-12T13:51:58.019Z,23.12
2017-05-12T13:53:11.126Z,23.22
2017-05-12T13:54:24.075Z,23.18
2017-05-12T13:55:36.498Z,23.21
2017-05-12T13:56:48.918Z,23.32
2017-05-12T13:58:01.834Z,23.39
2017-05-12T13:59:14.754Z,23.32
2017-05-12T14:00:27.166Z,23.31
2017-05-12T14:01:40.273Z,23.44
2017-05-12T14:02:52.191Z,23.47
2017-05-12T14:04:04.603Z,23.52
2017-05-12T14:05:17.018Z,23.77
2017-05-12T14:06:29.971Z,23.68
2017-05-12T14:07:43.088Z,23.74
2017-05-12T14:08:55.997Z,23.62
2017-05-12T14:10:08.411Z,23.52
2017-05-12T14:11:20.824Z,23.56
2017-05-12T14:12:33.244Z,23.59
2017-05-12T14:13:46.147Z,23.72
2017-05-12T14:14:59.051Z,23.79
2017-05-12T14:16:11.959Z,23.72
2017-05-12T14:17:24.377Z,23.86
2017-05-12T14:18:37.283Z,23.96
2017-05-12T14:19:49.701Z,24.11
2017-05-12T14:21:02.612Z,24.02
2017-05-12T14:22:15.031Z,24.12
2017-05-12T14:23:27.445Z,24.14
2017-05-12T14:24:39.858Z,24.15
2017-05-12T14:25:52.775Z,24.12
2017-05-12T14:27:05.183Z,23.96
2017-05-12T14:28:17.110Z,24.05
2017-05-12T14:29:30.012Z,24.08
2017-05-12T14:30:42.915Z,24.02
2017-05-12T14:31:55.829Z,23.96
2017-05-12T14:33:08.730Z,24.02
2017-05-12T14:34:21.633Z,24.18
2017-05-12T14:35:34.541Z,24.18
2017-05-12T14:36:46.954Z,24.26
2017-05-12T14:37:59.372Z,24.21
2017-05-12T14:39:12.315Z,24.29
2017-05-12T14:40:24.733Z,24.19
2017-05-12T14:41:37.155Z,24.09
2017-05-12T14:42:49.083Z,23.99
2017-05-12T14:44:01.993Z,23.63
2017-05-12T14:45:14.893Z,23.5
2017-05-12T14:46:26.818Z,23.44
2017-05-12T14:47:39.722Z,23.47
2017-05-12T14:48:52.622Z,23.52
2017-05-12T14:50:05.035Z,23.45
2017-05-12T14:51:17.455Z,23.37
2017-05-12T14:52:30.364Z,23.35
2017-05-12T14:53:43.264Z,23.31
2017-05-12T14:54:56.173Z,23.06
2017-05-12T14:56:09.284Z,22.97
2017-05-12T14:57:21.210Z,22.89
2017-05-12T14:58:34.116Z,22.91
2017-05-12T14:59:47.024Z,22.76
2017-05-12T15:00:59.928Z,22.67
2017-05-12T15:02:12.335Z,22.6
2017-05-12T15:03:24.747Z,22.56
2017-05-12T15:04:37.701Z,22.6
2017-05-12T15:05:50.110Z,22.46
2017-05-12T15:07:03.315Z,22.42
2017-05-12T15:08:16.221Z,22.44
2017-05-12T15:09:29.129Z,22.39
2017-05-12T15:10:42.034Z,22.45
2017-05-12T15:11:54.459Z,22.44
2017-05-12T15:13:06.881Z,22.45
2017-05-12T15:14:19.782Z,22.48
2017-05-12T15:15:32.689Z,22.51
2017-05-12T15:16:44.615Z,22.52
2017-05-12T15:17:57.723Z,22.45
2017-05-12T15:19:10.624Z,22.17
2017-05-12T15:20:23.529Z,22.12
2017-05-12T15:21:35.939Z,22.19
2017-05-12T15:22:48.852Z,22.19
2017-05-12T15:24:01.465Z,22.21
2017-05-12T15:25:14.363Z,22.2
2017-05-12T15:26:27.263Z,22.19
2017-05-12T15:27:40.168Z,22.31
2017-05-12T15:28:52.791Z,22.27
2017-05-12T15:30:05.689Z,22.35
2017-05-12T15:31:18.103Z,22.26
2017-05-12T15:32:30.520Z,22.29
2017-05-12T15:33:42.939Z,22.27
2017-05-12T15:34:56.046Z,22.26
2017-05-12T15:36:08.950Z,22.39
2017-05-12T15:37:21.360Z,22.39
2017-05-12T15:38:33.774Z,22.41
2017-05-12T15:39:46.685Z,22.44
2017-05-12T15:40:59.590Z,22.42
2017-05-12T15:42:12.005Z,22.51
2017-05-12T15:43:24.418Z,22.51